Sonny C — WDF5921 — position and weather

sailwx.info

Track history (hours):
 
Tides and Currents Weather Stations Pressure Air Temp Water Temp Dewpoint Dewpoint Depression Visibility Wind Speed Wind Dir Waves Ship Positions

Sonny C

More information available from US FCC via Universal Licensing System and Coast Guard Vessel Documentation Center.

Last reported at 2014-Jul-28 20:33 UTC. Time now 2014-Jul-28 20:39 UTC.
Position N 29°32' W 091°15'.

Length 21 m; draft 1.5 m.

Type: Tug. MMSI: 367468710.

Date/timePositionNaut miles runAvg speedWind from/ knotsBaromVisibWave heightAir tempDewpointWater temp
2014-Jul-28 20:33N 29°32' W 091°15'0 0.0
2014-Jul-28 19:33N 29°32' W 091°15'0 0.0
2014-Jul-28 18:33N 29°32' W 091°15'0 0.0
2014-Jul-28 17:33N 29°32' W 091°15'0 0.0
2014-Jul-28 16:33N 29°32' W 091°15'1 0.7
2014-Jul-28 15:33N 29°33' W 091°15'0 0.2
2014-Jul-28 14:33N 29°33' W 091°15'1 0.6
2014-Jul-28 13:33N 29°32' W 091°15'0 0.0
2014-Jul-28 12:33N 29°32' W 091°15'0 0.0
2014-Jul-28 11:33N 29°32' W 091°15'0 0.0
2014-Jul-28 10:33N 29°32' W 091°15'0 0.0
2014-Jul-28 09:33N 29°32' W 091°15'0 0.0
2014-Jul-28 08:33N 29°32' W 091°15'0 0.0
2014-Jul-28 07:33N 29°32' W 091°15'0 0.0
2014-Jul-28 06:33N 29°32' W 091°15'0 0.0
2014-Jul-28 05:33N 29°32' W 091°15'0 0.0
2014-Jul-28 04:33N 29°32' W 091°15'0 0.0
2014-Jul-28 03:33N 29°32' W 091°15'0 0.0
2014-Jul-28 02:33N 29°32' W 091°15'0 0.0
2014-Jul-28 01:33N 29°32' W 091°15'0 0.0
2014-Jul-28 00:33N 29°32' W 091°15'0 0.0
2014-Jul-27 23:33N 29°32' W 091°15'0 0.0
2014-Jul-27 22:33N 29°32' W 091°15'0 0.0
2014-Jul-27 21:33N 29°32' W 091°15'0 0.0
2014-Jul-27 20:33N 29°32' W 091°15'0 0.0
2014-Jul-27 19:33N 29°32' W 091°15'0 0.0
2014-Jul-27 18:33N 29°32' W 091°15'0 0.0
2014-Jul-27 17:33N 29°32' W 091°15'2 2.0
2014-Jul-27 16:33N 29°33' W 091°13'4 4.0
2014-Jul-27 15:33N 29°36' W 091°09'4 4.4
2014-Jul-27 14:33N 29°38' W 091°05'4 4.3
2014-Jul-27 13:33N 29°37' W 090°60'5 4.6
2014-Jul-27 12:30N 29°34' W 090°56'5 4.9
2014-Jul-27 11:32N 29°32' W 090°51'2 1.5
2014-Jul-27 10:33N 29°32' W 090°49'0 0.0
2014-Jul-27 09:33N 29°32' W 090°49'0 0.0
2014-Jul-27 08:32N 29°32' W 090°49'0 0.0
2014-Jul-27 07:33N 29°32' W 090°49'0 0.0
2014-Jul-27 06:33N 29°32' W 090°49'0 0.0
2014-Jul-27 05:33N 29°32' W 090°49'0 0.0
2014-Jul-27 04:32N 29°32' W 090°49'0 0.0
2014-Jul-27 03:33N 29°32' W 090°49'0 0.0
2014-Jul-27 02:33N 29°32' W 090°49'0 0.0
2014-Jul-27 01:33N 29°32' W 090°49'6 1.9
2014-Jul-26 22:30N 29°35' W 090°43'3 3.2
2014-Jul-26 21:33N 29°36' W 090°40'4 4.3
2014-Jul-26 20:33N 29°35' W 090°35'5 4.6
2014-Jul-26 19:33N 29°34' W 090°30'5 4.8
2014-Jul-26 18:33N 29°33' W 090°25'  
Track history (hours):
 
Tides and Currents Weather Stations Pressure Air Temp Water Temp Dewpoint Dewpoint Depression Visibility Wind Speed Wind Dir Waves Ship Positions

Sonny C

More information available from US FCC via Universal Licensing System and Coast Guard Vessel Documentation Center.

Last reported at 2014-Jul-28 20:33 UTC. Time now 2014-Jul-28 20:39 UTC.
Position N 29°32' W 091°15'.

Length 21 m; draft 1.5 m.

Type: Tug. MMSI: 367468710.

Date/timePositionNaut miles runAvg speedWind from/ knotsBaromVisibWave heightAir tempDewpointWater temp
2014-Jul-28 20:33N 29°32' W 091°15'0 0.0
2014-Jul-28 19:33N 29°32' W 091°15'0 0.0
2014-Jul-28 18:33N 29°32' W 091°15'0 0.0
2014-Jul-28 17:33N 29°32' W 091°15'0 0.0
2014-Jul-28 16:33N 29°32' W 091°15'1 0.7
2014-Jul-28 15:33N 29°33' W 091°15'0 0.2
2014-Jul-28 14:33N 29°33' W 091°15'1 0.6
2014-Jul-28 13:33N 29°32' W 091°15'0 0.0
2014-Jul-28 12:33N 29°32' W 091°15'0 0.0
2014-Jul-28 11:33N 29°32' W 091°15'0 0.0
2014-Jul-28 10:33N 29°32' W 091°15'0 0.0
2014-Jul-28 09:33N 29°32' W 091°15'0 0.0
2014-Jul-28 08:33N 29°32' W 091°15'0 0.0
2014-Jul-28 07:33N 29°32' W 091°15'0 0.0
2014-Jul-28 06:33N 29°32' W 091°15'0 0.0
2014-Jul-28 05:33N 29°32' W 091°15'0 0.0
2014-Jul-28 04:33N 29°32' W 091°15'0 0.0
2014-Jul-28 03:33N 29°32' W 091°15'0 0.0
2014-Jul-28 02:33N 29°32' W 091°15'0 0.0
2014-Jul-28 01:33N 29°32' W 091°15'0 0.0
2014-Jul-28 00:33N 29°32' W 091°15'0 0.0
2014-Jul-27 23:33N 29°32' W 091°15'0 0.0
2014-Jul-27 22:33N 29°32' W 091°15'0 0.0
2014-Jul-27 21:33N 29°32' W 091°15'0 0.0
2014-Jul-27 20:33N 29°32' W 091°15'0 0.0
2014-Jul-27 19:33N 29°32' W 091°15'0 0.0
2014-Jul-27 18:33N 29°32' W 091°15'0 0.0
2014-Jul-27 17:33N 29°32' W 091°15'2 2.0
2014-Jul-27 16:33N 29°33' W 091°13'4 4.0
2014-Jul-27 15:33N 29°36' W 091°09'4 4.4
2014-Jul-27 14:33N 29°38' W 091°05'4 4.3
2014-Jul-27 13:33N 29°37' W 090°60'5 4.6
2014-Jul-27 12:30N 29°34' W 090°56'5 4.9
2014-Jul-27 11:32N 29°32' W 090°51'2 1.5
2014-Jul-27 10:33N 29°32' W 090°49'0 0.0
2014-Jul-27 09:33N 29°32' W 090°49'0 0.0
2014-Jul-27 08:32N 29°32' W 090°49'0 0.0
2014-Jul-27 07:33N 29°32' W 090°49'0 0.0
2014-Jul-27 06:33N 29°32' W 090°49'0 0.0
2014-Jul-27 05:33N 29°32' W 090°49'0 0.0
2014-Jul-27 04:32N 29°32' W 090°49'0 0.0
2014-Jul-27 03:33N 29°32' W 090°49'0 0.0
2014-Jul-27 02:33N 29°32' W 090°49'0 0.0
2014-Jul-27 01:33N 29°32' W 090°49'6 1.9
2014-Jul-26 22:30N 29°35' W 090°43'3 3.2
2014-Jul-26 21:33N 29°36' W 090°40'4 4.3
2014-Jul-26 20:33N 29°35' W 090°35'5 4.6
2014-Jul-26 19:33N 29°34' W 090°30'5 4.8
2014-Jul-26 18:33N 29°33' W 090°25'  

Dump ship's entire track history